createdAt,value
2022-08-11T00:01:14.695Z,18.50
2022-08-11T00:03:48.174Z,18.40
2022-08-11T00:06:25.274Z,18.40
2022-08-11T00:08:54.409Z,18.30
2022-08-11T00:11:24.079Z,18.30
2022-08-11T00:13:55.614Z,18.30
2022-08-11T00:16:26.331Z,18.30
2022-08-11T00:18:56.701Z,18.20
2022-08-11T00:22:01.946Z,18.20
2022-08-11T00:24:15.737Z,18.20
2022-08-11T00:26:49.737Z,18.10
2022-08-11T00:29:18.251Z,18.00
2022-08-11T00:31:50.682Z,18.00
2022-08-11T00:34:21.465Z,18.00
2022-08-11T00:36:53.800Z,17.90
2022-08-11T00:39:28.476Z,17.90
2022-08-11T00:42:12.021Z,17.90
2022-08-11T00:44:50.266Z,17.80
2022-08-11T00:47:27.458Z,17.80
2022-08-11T00:50:08.818Z,17.80
2022-08-11T00:53:00.644Z,17.80
2022-08-11T00:56:08.918Z,17.70
2022-08-11T00:59:34.230Z,17.70
2022-08-11T01:02:16.850Z,17.70
2022-08-11T01:05:25.910Z,17.70
2022-08-11T01:08:16.082Z,17.60
2022-08-11T01:10:55.647Z,17.60
2022-08-11T01:14:06.271Z,17.60
2022-08-11T01:17:29.995Z,17.50
2022-08-11T01:20:45.868Z,17.50
2022-08-11T01:23:41.229Z,17.40
2022-08-11T01:26:45.230Z,17.40
2022-08-11T01:30:00.159Z,17.40
2022-08-11T01:33:25.373Z,17.40
2022-08-11T01:36:25.318Z,17.40
2022-08-11T01:39:20.063Z,17.30
2022-08-11T01:42:30.085Z,17.30
2022-08-11T01:45:12.427Z,17.20
2022-08-11T01:47:54.634Z,17.20
2022-08-11T01:50:36.733Z,17.20
2022-08-11T01:53:22.451Z,17.20
2022-08-11T01:55:59.221Z,17.10
2022-08-11T01:58:43.697Z,17.10
2022-08-11T02:01:25.426Z,17.10
2022-08-11T02:03:59.430Z,17.10
2022-08-11T02:06:54.005Z,17.10
2022-08-11T02:09:35.129Z,17.00
2022-08-11T02:12:15.293Z,17.00
2022-08-11T02:15:05.124Z,17.00
2022-08-11T02:17:54.907Z,17.00
2022-08-11T02:20:44.958Z,17.00
2022-08-11T02:24:06.735Z,16.90
2022-08-11T02:26:41.541Z,16.90
2022-08-11T02:29:17.935Z,16.90
2022-08-11T02:32:29.926Z,16.90
2022-08-11T02:35:11.281Z,16.80
2022-08-11T02:37:49.822Z,16.80
2022-08-11T02:40:25.119Z,16.80
2022-08-11T02:43:06.888Z,16.80
2022-08-11T02:45:54.481Z,16.70
2022-08-11T02:48:55.229Z,16.70
2022-08-11T02:51:33.393Z,16.60
2022-08-11T02:54:09.811Z,16.60
2022-08-11T02:56:52.064Z,16.50
2022-08-11T02:59:53.564Z,16.50
2022-08-11T03:02:45.868Z,16.50
2022-08-11T03:05:32.173Z,16.50
2022-08-11T03:08:18.679Z,16.50
2022-08-11T03:11:09.706Z,16.40
2022-08-11T03:14:02.414Z,16.40
2022-08-11T03:16:53.710Z,16.40
2022-08-11T03:19:31.350Z,16.30
2022-08-11T03:22:06.763Z,16.30
2022-08-11T03:24:50.434Z,16.30
2022-08-11T03:27:31.518Z,16.30
2022-08-11T03:30:07.647Z,16.20
2022-08-11T03:33:07.197Z,16.20
2022-08-11T03:35:40.246Z,16.20
2022-08-11T03:38:13.675Z,16.10
2022-08-11T03:41:57.602Z,16.10
2022-08-11T03:44:08.790Z,16.10
2022-08-11T03:46:48.576Z,16.10
2022-08-11T03:49:31.070Z,16.10
2022-08-11T03:52:12.845Z,16.00
2022-08-11T03:54:50.071Z,16.00
2022-08-11T03:57:46.691Z,16.00
2022-08-11T04:00:39.946Z,16.00
2022-08-11T04:03:38.227Z,16.00
2022-08-11T04:06:32.812Z,16.00
2022-08-11T04:09:57.419Z,16.00
2022-08-11T04:12:55.471Z,16.00
2022-08-11T04:16:11.739Z,16.00
2022-08-11T04:19:17.622Z,16.00
2022-08-11T04:22:18.008Z,16.00
2022-08-11T04:25:00.406Z,16.10
2022-08-11T04:28:29.330Z,16.10
2022-08-11T04:31:08.132Z,16.10
2022-08-11T04:34:00.841Z,16.20
2022-08-11T04:37:05.266Z,16.30
2022-08-11T04:39:50.285Z,16.30
2022-08-11T04:43:24.275Z,16.40
2022-08-11T04:46:22.075Z,16.50
2022-08-11T04:49:34.121Z,16.70
2022-08-11T04:52:47.076Z,16.70
2022-08-11T04:56:09.030Z,16.80
2022-08-11T04:59:14.354Z,16.90
2022-08-11T05:02:16.809Z,17.00
2022-08-11T05:05:21.680Z,17.20
2022-08-11T05:08:46.938Z,17.30
2022-08-11T05:11:42.147Z,17.40
2022-08-11T05:14:56.691Z,17.50
2022-08-11T05:17:52.977Z,17.60
2022-08-11T05:20:43.390Z,17.60
2022-08-11T05:23:30.274Z,17.80
2022-08-11T05:26:46.523Z,17.90
2022-08-11T05:29:47.076Z,18.00
2022-08-11T05:32:36.296Z,18.20
2022-08-11T05:35:07.833Z,18.30
2022-08-11T05:37:57.412Z,18.50
2022-08-11T05:40:43.497Z,18.70
2022-08-11T05:43:37.513Z,18.90
2022-08-11T05:46:47.222Z,19.10
2022-08-11T05:49:33.714Z,19.30
2022-08-11T05:52:21.669Z,19.40
2022-08-11T05:55:21.507Z,19.50
2022-08-11T05:57:51.898Z,19.70
2022-08-11T06:00:20.936Z,20.00
2022-08-11T06:02:55.305Z,20.10
2022-08-11T06:05:33.139Z,20.20
2022-08-11T06:08:13.584Z,20.40
2022-08-11T06:10:43.716Z,20.70
2022-08-11T06:13:16.315Z,21.00
2022-08-11T06:15:48.638Z,21.20
2022-08-11T06:18:19.466Z,21.30
2022-08-11T06:20:50.054Z,21.40
2022-08-11T06:23:20.431Z,21.60
2022-08-11T06:25:49.450Z,21.70
2022-08-11T06:28:20.719Z,21.90
2022-08-11T06:30:49.927Z,22.10
2022-08-11T06:33:30.607Z,22.40
2022-08-11T06:36:05.644Z,22.80
2022-08-11T06:38:48.330Z,23.10
2022-08-11T06:41:31.930Z,23.20
2022-08-11T06:44:21.879Z,23.50
2022-08-11T06:46:53.131Z,23.70
2022-08-11T06:49:50.717Z,23.80
2022-08-11T06:52:35.193Z,24.10
2022-08-11T06:55:54.800Z,24.40
2022-08-11T06:58:15.776Z,24.40
2022-08-11T07:00:44.899Z,24.50
2022-08-11T07:03:14.457Z,24.60
2022-08-11T07:05:56.686Z,24.90
2022-08-11T07:09:03.113Z,24.90
2022-08-11T07:12:19.286Z,25.10
2022-08-11T07:15:10.334Z,25.30
2022-08-11T07:17:43.878Z,25.50
2022-08-11T07:20:31.762Z,25.70
2022-08-11T07:23:22.207Z,26.00
2022-08-11T07:26:11.702Z,26.20
2022-08-11T07:28:59.126Z,26.50
2022-08-11T07:31:32.882Z,26.70
2022-08-11T07:34:17.392Z,26.90
2022-08-11T07:36:51.450Z,27.20
2022-08-11T07:39:23.331Z,27.00
2022-08-11T07:41:53.937Z,26.90
2022-08-11T07:44:29.422Z,26.70
2022-08-11T07:47:30.147Z,26.90
2022-08-11T07:50:16.115Z,27.10
2022-08-11T07:52:46.902Z,27.30
2022-08-11T07:55:48.972Z,27.60
2022-08-11T07:58:39.527Z,27.60
2022-08-11T08:01:36.798Z,27.80
2022-08-11T08:04:24.707Z,28.10
2022-08-11T08:07:11.415Z,28.40
2022-08-11T08:09:57.689Z,28.70
2022-08-11T08:12:45.358Z,28.90
2022-08-11T08:15:33.863Z,29.20
2022-08-11T08:18:09.439Z,29.40
2022-08-11T08:20:55.440Z,29.40
2022-08-11T08:23:34.394Z,29.80
2022-08-11T08:26:04.853Z,29.90
2022-08-11T08:28:35.458Z,30.10
2022-08-11T08:31:04.020Z,30.20
2022-08-11T08:33:33.110Z,30.40
2022-08-11T08:36:15.324Z,30.50
2022-08-11T08:38:48.748Z,30.50
2022-08-11T08:41:21.133Z,30.90
2022-08-11T08:43:53.495Z,30.80
2022-08-11T08:46:26.723Z,30.80
2022-08-11T08:48:56.238Z,30.90
